CHPR21 KFSM-
Flight info
| Callsign | CHPR21 |
|---|---|
| Flight time | N/A |
| Altitude | VFR |
| Route | VFR SOUTH |
| Aircraft | B407/L-DOV/C |
Departure
| Time | 2026-04-24 09:11 |
|---|---|
| Airport | Fort Smith Regional Airport (KFSM) |
Arrival
| Time | N/A |
|---|---|
| Airport | - |
| Time | Latitude | Longitude | Altitude | Speed | Heading |
|---|---|---|---|---|---|
| 2026-04-24 09:06 | 35.34007 | -94.35688 | 458 ft | 0 kts | 81° |
| 2026-04-24 09:10 | 35.33974 | -94.35689 | 571 ft | 20 kts | 172° |
| 2026-04-24 09:10 | 35.33698 | -94.35774 | 1047 ft | 55 kts | 183° |
| 2026-04-24 09:11 | 35.33218 | -94.35873 | 1485 ft | 86 kts | 192° |
| 2026-04-24 09:11 | 35.32583 | -94.35967 | 1660 ft | 98 kts | 187° |
| 2026-04-24 09:11 | 35.31878 | -94.36044 | 1760 ft | 106 kts | 192° |
| 2026-04-24 09:11 | 35.31123 | -94.36101 | 1815 ft | 108 kts | 184° |
| 2026-04-24 09:12 | 35.30364 | -94.36196 | 1854 ft | 109 kts | 191° |
| 2026-04-24 09:12 | 35.29671 | -94.36295 | 2118 ft | 93 kts | 170° |
| 2026-04-24 09:12 | 35.29158 | -94.36462 | 2036 ft | 85 kts | 193° |
| 2026-04-24 09:12 | 35.28593 | -94.36530 | 2205 ft | 88 kts | 187° |
| 2026-04-24 09:13 | 35.27980 | -94.36525 | 2303 ft | 97 kts | 162° |
| 2026-04-24 09:13 | 35.27626 | -94.36516 | 2562 ft | 82 kts | 342° |
| 2026-04-24 09:13 | 35.27870 | -94.36373 | 2993 ft | 54 kts | 64° |
| 2026-04-24 09:13 | 35.28364 | -94.35686 | 3557 ft | 107 kts | 53° |
| 2026-04-24 09:14 | 35.28847 | -94.34830 | 3427 ft | 141 kts | 60° |
| 2026-04-24 09:14 | 35.29562 | -94.33930 | 3470 ft | 141 kts | 46° |
| 2026-04-24 09:14 | 35.30341 | -94.33245 | 3645 ft | 137 kts | 17° |
| 2026-04-24 09:14 | 35.30861 | -94.32792 | 3524 ft | 129 kts | 76° |
| 2026-04-24 09:15 | 35.31456 | -94.31924 | 3544 ft | 105 kts | 85° |
| 2026-04-24 09:15 | 35.31695 | -94.31086 | 3230 ft | 127 kts | 60° |
| 2026-04-24 09:15 | 35.32296 | -94.30283 | 2812 ft | 131 kts | 43° |
| 2026-04-24 09:15 | 35.32715 | -94.29294 | 2339 ft | 40 kts | 149° |
| 2026-04-24 09:16 | 35.32563 | -94.29029 | 1880 ft | 56 kts | 149° |
| 2026-04-24 09:16 | 35.32118 | -94.28789 | 1252 ft | 67 kts | 180° |
| 2026-04-24 09:16 | 35.31814 | -94.28890 | 1124 ft | 35 kts | 184° |
| 2026-04-24 09:16 | 35.31609 | -94.28956 | 1201 ft | 53 kts | 194° |
| 2026-04-24 09:17 | 35.31213 | -94.29077 | 1334 ft | 69 kts | 189° |
| 2026-04-24 09:17 | 35.30923 | -94.29500 | 1045 ft | 66 kts | 248° |
| 2026-04-24 09:17 | 35.31073 | -94.29843 | 855 ft | 32 kts | 353° |
| 2026-04-24 09:17 | 35.31167 | -94.29854 | 461 ft | 3 kts | 91° |
| 2026-04-24 09:18 | 35.31156 | -94.29732 | 520 ft | 19 kts | 89° |
| 2026-04-24 09:18 | 35.31159 | -94.29676 | 425 ft | 0 kts | 89° |
| 2026-04-24 09:18 | 35.31159 | -94.29675 | 426 ft | 2 kts | 94° |
| 2026-04-24 09:18 | 35.31156 | -94.29674 | 425 ft | 0 kts | 148° |
| 2026-04-24 09:19 | 35.31162 | -94.29674 | 490 ft | 4 kts | 139° |
| 2026-04-24 09:19 | 35.31205 | -94.29485 | 705 ft | 58 kts | 52° |
| 2026-04-24 09:19 | 35.31691 | -94.29534 | 725 ft | 83 kts | 26° |
| 2026-04-24 09:19 | 35.32188 | -94.29174 | 753 ft | 97 kts | 34° |
| 2026-04-24 09:20 | 35.32706 | -94.28871 | 1097 ft | 71 kts | 12° |
| 2026-04-24 09:20 | 35.33163 | -94.28791 | 1717 ft | 36 kts | 15° |
| 2026-04-24 09:20 | 35.33331 | -94.28733 | 2045 ft | 39 kts | 19° |
| 2026-04-24 09:20 | 35.33654 | -94.28640 | 2347 ft | 59 kts | 153° |
| 2026-04-24 09:21 | 35.33752 | -94.28588 | 2484 ft | 18 kts | 356° |
| 2026-04-24 09:21 | 35.33893 | -94.28600 | 2441 ft | 19 kts | 240° |
| 2026-04-24 09:21 | 35.34027 | -94.28320 | 2096 ft | 25 kts | 101° |
| 2026-04-24 09:21 | 35.34155 | -94.28252 | 1869 ft | 46 kts | 301° |
| 2026-04-24 09:22 | 35.34418 | -94.28141 | 1971 ft | 3 kts | 322° |
| 2026-04-24 09:22 | 35.34510 | -94.28143 | 1644 ft | 17 kts | 343° |
| 2026-04-24 09:22 | 35.34594 | -94.28010 | 963 ft | 15 kts | 170° |
| 2026-04-24 09:22 | 35.34587 | -94.27982 | 393 ft | 5 kts | 349° |
| 2026-04-24 09:23 | 35.34632 | -94.27988 | 393 ft | 2 kts | 326° |
| 2026-04-24 09:23 | 35.34646 | -94.27994 | 407 ft | 3 kts | 264° |
| 2026-04-24 09:23 | 35.34650 | -94.28047 | 553 ft | 23 kts | 265° |
| 2026-04-24 09:23 | 35.34784 | -94.28558 | 624 ft | 86 kts | 327° |
| 2026-04-24 09:24 | 35.35340 | -94.28705 | 1067 ft | 71 kts | 334° |
| 2026-04-24 09:24 | 35.35571 | -94.29119 | 1667 ft | 53 kts | 238° |
| 2026-04-24 09:24 | 35.35559 | -94.29643 | 2004 ft | 78 kts | 250° |
| 2026-04-24 09:24 | 35.35432 | -94.30429 | 1989 ft | 102 kts | 252° |
| 2026-04-24 09:25 | 35.35116 | -94.31335 | 1577 ft | 127 kts | 230° |
| 2026-04-24 09:25 | 35.34938 | -94.32032 | 1619 ft | 38 kts | 258° |
| 2026-04-24 09:25 | 35.34937 | -94.31859 | 1198 ft | 24 kts | 262° |
| 2026-04-24 09:25 | 35.35088 | -94.31777 | 869 ft | 3 kts | 334° |
| 2026-04-24 09:26 | 35.35123 | -94.31780 | 745 ft | 7 kts | 84° |
| 2026-04-24 09:26 | 35.35129 | -94.31743 | 415 ft | 0 kts | 108° |
| 2026-04-24 09:26 | 35.35129 | -94.31742 | 426 ft | 0 kts | 104° |
| 2026-04-24 09:26 | 35.35115 | -94.31729 | 693 ft | 10 kts | 207° |
| 2026-04-24 09:27 | 35.35004 | -94.31978 | 944 ft | 60 kts | 235° |
| 2026-04-24 09:27 | 35.34778 | -94.32523 | 1147 ft | 86 kts | 248° |
| 2026-04-24 09:27 | 35.34540 | -94.33285 | 1272 ft | 98 kts | 242° |
| 2026-04-24 09:27 | 35.34341 | -94.34020 | 1577 ft | 93 kts | 244° |
| 2026-04-24 09:28 | 35.34206 | -94.34797 | 1680 ft | 84 kts | 241° |
| 2026-04-24 09:28 | 35.34109 | -94.35250 | 2304 ft | 38 kts | 233° |
| 2026-04-24 09:28 | 35.33965 | -94.35506 | 2642 ft | 22 kts | 233° |
| 2026-04-24 09:28 | 35.33935 | -94.35689 | 2498 ft | 46 kts | 234° |
| 2026-04-24 09:29 | 35.34116 | -94.36484 | 1676 ft | 107 kts | 334° |
| 2026-04-24 09:29 | 35.34546 | -94.36070 | 1344 ft | 90 kts | 94° |
| 2026-04-24 09:29 | 35.34456 | -94.35784 | 1788 ft | 6 kts | 178° |
| 2026-04-24 09:29 | 35.34479 | -94.35570 | 1810 ft | 37 kts | 162° |
| 2026-04-24 09:30 | 35.34212 | -94.35245 | 1557 ft | 65 kts | 148° |
| 2026-04-24 09:30 | 35.33999 | -94.35323 | 1449 ft | 33 kts | 248° |
| 2026-04-24 09:30 | 35.34016 | -94.35579 | 1097 ft | 60 kts | 255° |
| 2026-04-24 09:30 | 35.34090 | -94.35944 | 874 ft | 24 kts | 277° |
| 2026-04-24 09:31 | 35.34118 | -94.36064 | 886 ft | 29 kts | 286° |
| 2026-04-24 09:31 | 35.34157 | -94.36454 | 954 ft | 51 kts | 274° |
| 2026-04-24 09:31 | 35.34194 | -94.36773 | 631 ft | 26 kts | 268° |
| 2026-04-24 09:31 | 35.34187 | -94.36867 | 451 ft | 0 kts | 272° |